createdAt,value
2018-09-11T00:02:10.227Z,2.57
2018-09-11T00:04:38.571Z,2.00
2018-09-11T00:07:06.949Z,1.50
2018-09-11T00:09:35.285Z,1.97
2018-09-11T00:12:03.626Z,2.30
2018-09-11T00:14:32.609Z,1.60
2018-09-11T00:17:01.018Z,1.87
2018-09-11T00:19:29.919Z,1.87
2018-09-11T00:21:58.288Z,1.70
2018-09-11T00:24:26.610Z,1.73
2018-09-11T00:26:55.632Z,2.07
2018-09-11T00:29:23.996Z,1.40
2018-09-11T00:31:52.470Z,1.70
2018-09-11T00:34:21.358Z,1.77
2018-09-11T00:36:49.744Z,1.30
2018-09-11T00:39:18.096Z,1.93
2018-09-11T00:41:46.430Z,2.43
2018-09-11T00:44:14.756Z,2.17
2018-09-11T00:46:43.071Z,1.83
2018-09-11T00:49:11.488Z,1.50
2018-09-11T00:51:39.849Z,1.83
2018-09-11T00:54:08.230Z,1.83
2018-09-11T00:56:36.600Z,1.93
2018-09-11T00:59:05.259Z,2.20
2018-09-11T01:01:33.577Z,1.90
2018-09-11T01:04:01.988Z,1.80
2018-09-11T01:06:30.344Z,1.63
2018-09-11T01:08:59.378Z,1.40
2018-09-11T01:11:27.826Z,1.27
2018-09-11T01:14:00.528Z,1.77
2018-09-11T01:16:28.886Z,2.40
2018-09-11T01:18:57.313Z,2.30
2018-09-11T01:21:25.634Z,2.37
2018-09-11T01:23:54.002Z,2.93
2018-09-11T01:26:22.322Z,2.13
2018-09-11T01:28:50.672Z,3.47
2018-09-11T01:31:19.138Z,1.80
2018-09-11T01:33:47.469Z,2.80
2018-09-11T01:36:15.814Z,2.93
2018-09-11T01:38:44.150Z,2.23
2018-09-11T01:41:12.664Z,2.07
2018-09-11T01:46:15.667Z,3.43
2018-09-11T01:48:44.016Z,2.87
2018-09-11T01:51:12.451Z,3.30
2018-09-11T01:53:40.858Z,3.97
2018-09-11T01:56:09.168Z,3.73
2018-09-11T01:58:37.512Z,3.43
2018-09-11T02:01:06.618Z,3.00
2018-09-11T02:03:34.942Z,3.50
2018-09-11T02:06:03.439Z,3.20
2018-09-11T02:08:31.774Z,3.10
2018-09-11T02:11:00.161Z,3.70
2018-09-11T02:13:28.514Z,2.77
2018-09-11T02:15:56.841Z,2.40
2018-09-11T02:18:25.220Z,2.50
2018-09-11T02:20:53.543Z,2.13
2018-09-11T02:23:21.899Z,2.07
2018-09-11T02:25:51.412Z,2.20
2018-09-11T02:28:19.750Z,3.07
2018-09-11T02:30:48.141Z,2.53
2018-09-11T02:33:16.464Z,2.37
2018-09-11T02:35:44.816Z,1.53
2018-09-11T02:38:13.167Z,2.07
2018-09-11T02:40:41.499Z,1.70
2018-09-11T02:43:09.830Z,1.20
2018-09-11T02:45:38.760Z,1.33
2018-09-11T02:48:07.184Z,2.10
2018-09-11T02:50:35.538Z,2.77
2018-09-11T02:53:03.855Z,2.30
2018-09-11T02:55:32.940Z,2.17
2018-09-11T02:58:01.254Z,2.30
2018-09-11T03:00:29.656Z,2.70
2018-09-11T03:02:58.024Z,2.07
2018-09-11T03:05:26.362Z,1.87
2018-09-11T03:07:54.795Z,2.57
2018-09-11T03:10:23.102Z,2.57
2018-09-11T03:12:51.421Z,2.47
2018-09-11T03:15:19.794Z,3.23
2018-09-11T03:17:48.101Z,3.07
2018-09-11T03:20:16.458Z,2.77
2018-09-11T03:22:44.905Z,3.10
2018-09-11T03:25:13.237Z,2.20
2018-09-11T03:27:42.166Z,2.27
2018-09-11T03:30:10.506Z,2.80
2018-09-11T03:32:39.353Z,3.20
2018-09-11T03:35:07.717Z,2.03
2018-09-11T03:37:36.112Z,3.73
2018-09-11T03:40:05.336Z,2.40
2018-09-11T03:42:33.671Z,2.00
2018-09-11T03:45:02.044Z,2.57
2018-09-11T03:47:30.357Z,2.80
2018-09-11T03:49:58.810Z,2.20
2018-09-11T03:52:27.254Z,3.10
2018-09-11T03:54:55.603Z,2.63
2018-09-11T03:57:23.943Z,2.90
2018-09-11T03:59:52.276Z,3.13
2018-09-11T04:02:20.600Z,2.37
2018-09-11T04:04:49.543Z,2.30
2018-09-11T04:07:17.880Z,1.90
2018-09-11T04:09:47.470Z,3.10
2018-09-11T04:12:16.020Z,2.47
2018-09-11T04:14:44.333Z,2.77
2018-09-11T04:17:12.652Z,2.53
2018-09-11T04:19:41.028Z,2.30
2018-09-11T04:22:09.363Z,2.83
2018-09-11T04:24:37.855Z,2.00
2018-09-11T04:27:06.197Z,1.83
2018-09-11T04:29:35.256Z,2.10
2018-09-11T04:32:03.607Z,2.53
2018-09-11T04:34:31.935Z,3.30
2018-09-11T04:37:00.337Z,3.70
2018-09-11T04:39:28.697Z,2.60
2018-09-11T04:41:57.256Z,2.57
2018-09-11T04:44:25.603Z,2.63
2018-09-11T04:46:53.945Z,2.43
2018-09-11T04:49:22.868Z,2.13
2018-09-11T04:51:51.189Z,2.23
2018-09-11T04:54:22.538Z,2.37
2018-09-11T04:56:50.864Z,2.40
2018-09-11T04:59:19.171Z,2.20
2018-09-11T05:01:47.579Z,2.27
2018-09-11T05:04:16.024Z,1.97
2018-09-11T05:06:44.347Z,2.30
2018-09-11T05:09:13.305Z,1.90
2018-09-11T05:11:41.629Z,2.20
2018-09-11T05:14:10.005Z,2.93
2018-09-11T05:16:38.355Z,1.80
2018-09-11T05:19:06.844Z,1.73
2018-09-11T05:21:35.127Z,2.20
2018-09-11T05:24:03.492Z,1.70
2018-09-11T05:26:31.862Z,2.33
2018-09-11T05:29:00.243Z,3.33
2018-09-11T05:31:28.678Z,2.47
2018-09-11T05:33:57.053Z,2.37
2018-09-11T05:36:25.916Z,3.03
2018-09-11T05:38:54.435Z,2.13
2018-09-11T05:41:22.751Z,2.53
2018-09-11T05:43:51.129Z,3.20
2018-09-11T05:46:19.583Z,2.77
2018-09-11T05:48:48.666Z,3.80
2018-09-11T05:51:17.024Z,2.53
2018-09-11T05:53:45.356Z,2.60
2018-09-11T05:56:13.707Z,1.87
2018-09-11T05:58:42.043Z,2.30
2018-09-11T06:01:10.352Z,2.37
2018-09-11T06:03:38.955Z,1.50
2018-09-11T06:06:07.282Z,1.60
2018-09-11T06:08:35.620Z,2.00
2018-09-11T06:11:03.944Z,1.90
2018-09-11T06:13:32.281Z,2.37
2018-09-11T06:16:00.607Z,2.77
2018-09-11T06:18:28.968Z,2.13
2018-09-11T06:20:57.326Z,2.90
2018-09-11T06:23:25.701Z,3.97
2018-09-11T06:25:54.035Z,2.73
2018-09-11T06:28:22.378Z,3.07
2018-09-11T06:30:50.691Z,2.63
2018-09-11T06:33:19.031Z,3.33
2018-09-11T06:35:47.389Z,2.53
2018-09-11T06:38:16.366Z,1.30
2018-09-11T06:40:44.869Z,3.07
2018-09-11T06:43:13.248Z,3.33
2018-09-11T06:45:41.610Z,3.53
2018-09-11T06:48:09.946Z,4.50
2018-09-11T06:50:38.433Z,2.63
2018-09-11T06:53:07.336Z,2.87
2018-09-11T06:55:35.674Z,2.43
2018-09-11T06:58:04.110Z,3.93
2018-09-11T07:00:32.462Z,3.50
2018-09-11T07:03:01.369Z,3.47
2018-09-11T07:05:30.428Z,4.53
2018-09-11T07:07:58.756Z,4.67
2018-09-11T07:10:27.330Z,5.20
2018-09-11T07:12:55.648Z,4.50
2018-09-11T07:15:23.976Z,4.57
2018-09-11T07:17:53.109Z,5.07
2018-09-11T07:20:21.938Z,5.37
2018-09-11T07:22:49.908Z,3.40
2018-09-11T07:25:18.252Z,4.33
2018-09-11T07:27:46.584Z,4.07
2018-09-11T07:30:14.936Z,4.27
2018-09-11T07:32:43.238Z,4.70
2018-09-11T07:35:11.772Z,4.87
2018-09-11T07:37:40.175Z,3.70
2018-09-11T07:40:08.891Z,3.70
2018-09-11T07:42:37.218Z,4.27
2018-09-11T07:45:05.804Z,3.80
2018-09-11T07:47:34.121Z,4.47
2018-09-11T07:50:02.504Z,4.60
2018-09-11T07:52:30.962Z,4.83
2018-09-11T07:54:59.377Z,4.83
2018-09-11T07:57:27.813Z,4.10
2018-09-11T07:59:56.462Z,3.40
2018-09-11T08:02:24.844Z,3.70
2018-09-11T08:04:53.205Z,4.93
2018-09-11T08:07:21.542Z,4.67
2018-09-11T08:09:49.858Z,4.13
2018-09-11T08:12:18.264Z,3.87
2018-09-11T08:14:46.664Z,3.93
2018-09-11T08:17:15.010Z,3.80
2018-09-11T08:19:43.342Z,4.00
2018-09-11T08:22:11.695Z,3.37
2018-09-11T08:24:40.023Z,4.43
2018-09-11T08:27:09.064Z,3.60
2018-09-11T08:29:37.404Z,3.50
2018-09-11T08:32:05.754Z,3.13
2018-09-11T08:34:34.853Z,2.87
2018-09-11T08:37:03.160Z,2.30
2018-09-11T08:39:31.513Z,2.97
2018-09-11T08:42:00.403Z,3.17
2018-09-11T08:44:28.746Z,2.83
2018-09-11T08:46:57.082Z,3.23
2018-09-11T08:49:25.818Z,2.53
2018-09-11T08:51:54.162Z,3.27
2018-09-11T08:54:22.598Z,2.90
2018-09-11T08:56:50.985Z,2.33
2018-09-11T08:59:19.336Z,2.47
2018-09-11T09:01:47.665Z,2.30
2018-09-11T09:04:16.014Z,3.20
2018-09-11T09:06:45.016Z,2.97
2018-09-11T09:09:13.324Z,2.27
2018-09-11T09:11:41.658Z,2.47
2018-09-11T09:14:09.983Z,2.60
2018-09-11T09:16:38.328Z,2.20
2018-09-11T09:19:06.685Z,2.20
2018-09-11T09:21:35.021Z,2.20
2018-09-11T09:24:03.445Z,2.27
2018-09-11T09:26:31.809Z,1.60
2018-09-11T09:29:00.176Z,2.33
2018-09-11T09:31:28.500Z,2.03
2018-09-11T09:33:56.924Z,2.73
2018-09-11T09:36:25.355Z,2.07
2018-09-11T09:38:53.692Z,1.70
2018-09-11T09:41:22.142Z,2.37
2018-09-11T09:43:50.563Z,1.90
2018-09-11T09:46:18.877Z,1.70
2018-09-11T09:48:47.228Z,1.17
2018-09-11T09:51:15.567Z,2.10
2018-09-11T09:53:44.396Z,1.70
2018-09-11T09:56:12.804Z,1.53
2018-09-11T09:58:41.129Z,1.47
2018-09-11T10:01:15.349Z,1.53
2018-09-11T10:03:43.693Z,1.17
2018-09-11T10:06:12.056Z,1.30
2018-09-11T10:08:41.353Z,1.10
2018-09-11T10:11:09.881Z,1.23
2018-09-11T10:13:38.249Z,1.57
2018-09-11T10:16:06.591Z,1.33
2018-09-11T10:18:34.969Z,1.23
2018-09-11T10:21:04.010Z,1.90
2018-09-11T10:23:32.327Z,1.57
2018-09-11T10:26:00.627Z,1.23
2018-09-11T10:28:29.033Z,1.00
2018-09-11T10:30:57.443Z,1.00
2018-09-11T10:33:25.775Z,1.40
2018-09-11T10:35:54.195Z,1.20
2018-09-11T10:38:22.511Z,1.17
2018-09-11T10:40:51.433Z,1.50
2018-09-11T10:43:19.816Z,1.23
2018-09-11T10:45:48.202Z,1.50
2018-09-11T10:48:16.580Z,1.13
2018-09-11T10:50:44.910Z,0.93
2018-09-11T10:53:13.214Z,1.10
2018-09-11T10:55:41.601Z,1.30
2018-09-11T10:58:09.947Z,1.00
2018-09-11T11:00:38.309Z,1.83
2018-09-11T11:03:06.853Z,1.70
2018-09-11T11:05:35.171Z,1.60
2018-09-11T11:08:03.545Z,1.20
2018-09-11T11:10:31.973Z,1.33
2018-09-11T11:13:00.633Z,1.70
2018-09-11T11:15:29.057Z,0.83
2018-09-11T11:17:57.392Z,1.73
2018-09-11T11:20:25.735Z,1.40
2018-09-11T11:22:54.085Z,1.60
2018-09-11T11:25:22.424Z,1.10
2018-09-11T11:27:51.021Z,1.43
2018-09-11T11:30:19.343Z,1.30
2018-09-11T11:32:48.581Z,1.63
2018-09-11T11:35:16.964Z,1.90
2018-09-11T11:37:45.304Z,1.60
2018-09-11T11:40:14.349Z,1.47
2018-09-11T11:42:42.748Z,1.93
2018-09-11T11:45:11.163Z,1.60
2018-09-11T11:47:39.492Z,1.10
2018-09-11T11:50:07.914Z,2.27
2018-09-11T11:52:36.830Z,1.83
2018-09-11T11:55:05.212Z,1.07
2018-09-11T11:57:33.530Z,1.40
2018-09-11T12:00:01.879Z,1.50
2018-09-11T12:02:30.198Z,1.40
2018-09-11T12:04:58.536Z,1.53
2018-09-11T12:07:26.868Z,1.40
2018-09-11T12:09:55.352Z,1.37
2018-09-11T12:12:23.676Z,1.40
2018-09-11T12:14:52.563Z,1.23
2018-09-11T12:17:20.940Z,1.53
2018-09-11T12:19:49.424Z,1.20
2018-09-11T12:22:17.800Z,1.50
2018-09-11T12:24:46.151Z,1.50
2018-09-11T12:27:14.480Z,1.20
2018-09-11T12:29:43.348Z,1.63
2018-09-11T12:32:12.185Z,1.30
2018-09-11T12:34:40.517Z,1.40
2018-09-11T12:37:08.848Z,1.27
2018-09-11T12:39:37.333Z,1.30
2018-09-11T12:42:05.769Z,1.53
2018-09-11T12:44:34.115Z,1.60
2018-09-11T12:47:02.606Z,1.40
2018-09-11T12:49:31.558Z,1.67
2018-09-11T12:51:59.893Z,1.20
2018-09-11T12:54:28.249Z,1.83
2018-09-11T12:56:56.587Z,1.67
2018-09-11T12:59:24.930Z,1.50
2018-09-11T13:01:53.360Z,1.53
2018-09-11T13:04:21.693Z,1.30
2018-09-11T13:06:50.023Z,1.30
2018-09-11T13:09:18.396Z,1.30
2018-09-11T13:11:46.696Z,1.20
2018-09-11T13:14:15.081Z,2.13
2018-09-11T13:16:43.531Z,1.77
2018-09-11T13:19:11.882Z,1.50
2018-09-11T13:21:40.219Z,1.80
2018-09-11T13:24:08.606Z,1.67
2018-09-11T13:26:37.011Z,1.77
2018-09-11T13:29:05.421Z,1.30
2018-09-11T13:31:33.848Z,1.70
2018-09-11T13:34:02.967Z,1.73
2018-09-11T13:36:32.004Z,1.30
2018-09-11T13:39:00.617Z,1.90
2018-09-11T13:41:28.989Z,1.87
2018-09-11T13:43:57.978Z,1.73
2018-09-11T13:46:26.310Z,1.70
2018-09-11T13:48:54.603Z,1.63
2018-09-11T13:51:22.960Z,1.80
2018-09-11T13:53:51.484Z,1.33
2018-09-11T13:56:19.940Z,2.03
2018-09-11T13:58:48.258Z,1.70
2018-09-11T14:01:16.610Z,1.53
2018-09-11T14:03:44.944Z,1.67
2018-09-11T14:06:13.991Z,2.20
2018-09-11T14:08:42.412Z,1.57
2018-09-11T14:11:10.729Z,1.73
2018-09-11T14:13:39.151Z,1.97
2018-09-11T14:16:07.902Z,1.60
2018-09-11T14:18:36.265Z,1.57
2018-09-11T14:21:05.100Z,2.43
2018-09-11T14:23:33.450Z,1.83
2018-09-11T14:26:01.819Z,2.00
2018-09-11T14:28:30.175Z,1.73
2018-09-11T14:30:58.539Z,2.40
2018-09-11T14:33:26.988Z,1.80
2018-09-11T14:35:55.339Z,1.80
2018-09-11T14:38:24.256Z,1.87
2018-09-11T14:40:53.406Z,1.30
2018-09-11T14:43:21.794Z,2.03
2018-09-11T14:45:50.612Z,2.03
2018-09-11T14:48:19.004Z,1.53
2018-09-11T14:50:47.345Z,2.10
2018-09-11T14:53:15.689Z,1.90
2018-09-11T14:55:44.102Z,2.00
2018-09-11T14:58:12.422Z,1.40
2018-09-11T15:00:40.806Z,1.30
2018-09-11T15:03:09.314Z,1.47
2018-09-11T15:05:37.725Z,1.53
2018-09-11T15:08:06.096Z,1.70
2018-09-11T15:10:34.453Z,1.90
2018-09-11T15:13:02.800Z,1.80
2018-09-11T15:15:31.165Z,1.87
2018-09-11T15:17:59.668Z,1.73
2018-09-11T15:20:28.005Z,1.70
2018-09-11T15:22:56.949Z,2.13
2018-09-11T15:25:25.368Z,1.87
2018-09-11T15:27:53.713Z,1.60
2018-09-11T15:30:22.174Z,1.80
2018-09-11T15:32:50.522Z,1.67
2018-09-11T15:35:18.891Z,1.63
2018-09-11T15:37:47.236Z,1.33
2018-09-11T15:40:15.583Z,1.90
2018-09-11T15:42:44.013Z,1.50
2018-09-11T15:45:12.356Z,1.73
2018-09-11T15:47:40.713Z,1.83
2018-09-11T15:50:09.069Z,1.73
2018-09-11T15:52:37.499Z,1.57
2018-09-11T15:55:06.444Z,2.20
2018-09-11T15:57:35.460Z,1.87
2018-09-11T16:00:03.906Z,2.07
2018-09-11T16:02:32.273Z,1.90
2018-09-11T16:05:00.596Z,1.60
2018-09-11T16:07:28.912Z,1.53
2018-09-11T16:09:57.279Z,1.83
2018-09-11T16:12:25.644Z,1.90
2018-09-11T16:14:54.107Z,1.73
2018-09-11T16:17:22.441Z,1.70
2018-09-11T16:19:50.799Z,1.43
2018-09-11T16:22:19.180Z,2.07
2018-09-11T16:24:47.669Z,1.50
2018-09-11T16:27:16.012Z,2.37
2018-09-11T16:29:44.966Z,2.00
2018-09-11T16:32:13.279Z,1.70
2018-09-11T16:34:41.668Z,2.07
2018-09-11T16:37:10.768Z,1.70
2018-09-11T16:39:39.138Z,1.60
2018-09-11T16:42:07.501Z,1.50
2018-09-11T16:44:36.112Z,1.80
2018-09-11T16:47:04.703Z,1.73
2018-09-11T16:49:33.471Z,2.00
2018-09-11T16:52:01.843Z,3.10
2018-09-11T16:54:30.337Z,2.20
2018-09-11T16:56:58.705Z,2.60
2018-09-11T16:59:27.634Z,1.87
2018-09-11T17:01:56.106Z,2.70
2018-09-11T17:04:24.443Z,2.10
2018-09-11T17:06:53.667Z,1.80
2018-09-11T17:09:22.026Z,1.57
2018-09-11T17:11:50.412Z,1.57
2018-09-11T17:14:19.062Z,1.97
2018-09-11T17:16:47.502Z,1.30
2018-09-11T17:19:15.890Z,2.10
2018-09-11T17:21:44.243Z,1.50
2018-09-11T17:24:12.583Z,1.63
2018-09-11T17:26:40.953Z,1.33
2018-09-11T17:29:09.382Z,1.40
2018-09-11T17:31:37.840Z,1.23
2018-09-11T17:34:06.333Z,1.20
2018-09-11T17:36:34.713Z,1.60
2018-09-11T17:39:03.158Z,1.67
2018-09-11T17:41:31.589Z,1.30
2018-09-11T17:43:59.960Z,1.10
2018-09-11T17:46:34.984Z,1.13
2018-09-11T17:49:04.256Z,1.30
2018-09-11T17:51:32.681Z,1.20
2018-09-11T17:54:01.035Z,1.50
2018-09-11T17:56:30.270Z,0.97
2018-09-11T17:58:58.647Z,1.17
2018-09-11T18:01:27.057Z,1.20
2018-09-11T18:03:55.428Z,1.20
2018-09-11T18:06:23.804Z,1.20
2018-09-11T18:08:52.161Z,1.43
2018-09-11T18:11:20.562Z,1.90
2018-09-11T18:13:48.998Z,2.23
2018-09-11T18:16:17.983Z,1.27
2018-09-11T18:18:46.378Z,1.67
2018-09-11T18:21:14.723Z,1.43
2018-09-11T18:23:43.145Z,1.30
2018-09-11T18:26:14.546Z,1.00
2018-09-11T18:28:42.961Z,1.07
2018-09-11T18:31:11.364Z,1.10
2018-09-11T18:33:39.815Z,1.73
2018-09-11T18:36:08.320Z,1.50
2018-09-11T18:38:36.671Z,1.27
2018-09-11T18:41:06.250Z,0.93
2018-09-11T18:43:34.685Z,1.10
2018-09-11T18:46:03.142Z,1.10
2018-09-11T18:48:32.569Z,0.97
2018-09-11T18:51:01.028Z,1.50
2018-09-11T18:53:30.070Z,2.00
2018-09-11T18:55:58.460Z,0.90
2018-09-11T18:58:26.865Z,1.30
2018-09-11T19:00:55.389Z,1.00
2018-09-11T19:03:23.747Z,0.80
2018-09-11T19:05:58.762Z,1.10
2018-09-11T19:08:33.915Z,1.40
2018-09-11T19:11:02.345Z,1.07
2018-09-11T19:13:34.946Z,1.10
2018-09-11T19:16:03.397Z,0.90
2018-09-11T19:18:31.823Z,1.53
2018-09-11T19:21:00.426Z,1.03
2018-09-11T19:23:29.754Z,1.13
2018-09-11T19:25:59.201Z,1.53
2018-09-11T19:28:27.989Z,1.80
2018-09-11T19:30:56.486Z,1.63
2018-09-11T19:33:24.914Z,1.60
2018-09-11T19:35:53.305Z,1.70
2018-09-11T19:38:22.201Z,1.60
2018-09-11T19:40:50.616Z,2.50
2018-09-11T19:43:19.028Z,1.73
2018-09-11T19:45:47.474Z,1.83
2018-09-11T19:48:15.825Z,1.43
2018-09-11T19:50:44.286Z,1.20
2018-09-11T19:53:12.686Z,1.20
2018-09-11T19:55:41.055Z,1.20
2018-09-11T19:58:09.447Z,0.87
2018-09-11T20:00:37.859Z,1.00
2018-09-11T20:03:07.076Z,1.30
2018-09-11T20:05:35.488Z,1.80
2018-09-11T20:08:03.879Z,1.60
2018-09-11T20:10:32.246Z,1.23
2018-09-11T20:13:01.522Z,1.13
2018-09-11T20:15:29.912Z,1.07
2018-09-11T20:17:58.297Z,1.43
2018-09-11T20:20:26.643Z,2.40
2018-09-11T20:22:55.070Z,2.50
2018-09-11T20:25:23.491Z,2.10
2018-09-11T20:27:52.209Z,1.40
2018-09-11T20:30:20.584Z,1.67
2018-09-11T20:32:48.933Z,2.30
2018-09-11T20:35:17.312Z,1.63
2018-09-11T20:37:45.739Z,2.20
2018-09-11T20:40:14.144Z,1.37
2018-09-11T20:42:43.210Z,1.60
2018-09-11T20:45:11.675Z,1.27
2018-09-11T20:47:40.118Z,1.33
2018-09-11T20:50:08.491Z,1.23
2018-09-11T20:52:36.936Z,1.43
2018-09-11T20:55:05.473Z,1.50
2018-09-11T20:57:33.916Z,2.60
2018-09-11T21:00:02.269Z,1.40
2018-09-11T21:02:30.625Z,1.03
2018-09-11T21:04:59.036Z,1.43
2018-09-11T21:07:27.364Z,1.90
2018-09-11T21:09:55.749Z,1.53
2018-09-11T21:12:24.391Z,1.10
2018-09-11T21:14:52.807Z,1.30
2018-09-11T21:17:21.235Z,1.57
2018-09-11T21:19:49.618Z,1.40
2018-09-11T21:22:17.978Z,1.87
2018-09-11T21:24:46.469Z,1.00
2018-09-11T21:27:14.812Z,1.43
2018-09-11T21:29:43.180Z,1.67
2018-09-11T21:32:11.539Z,1.80
2018-09-11T21:34:39.872Z,1.60
2018-09-11T21:37:08.240Z,1.10
2018-09-11T21:39:36.589Z,1.53
2018-09-11T21:42:04.941Z,1.30
2018-09-11T21:44:33.293Z,1.27
2018-09-11T21:47:01.692Z,1.53
2018-09-11T21:49:30.044Z,1.20
2018-09-11T21:51:58.418Z,1.73
2018-09-11T21:54:26.751Z,1.47
2018-09-11T21:56:55.717Z,1.67
2018-09-11T21:59:24.076Z,1.30
2018-09-11T22:01:53.282Z,1.23
2018-09-11T22:04:22.645Z,1.33
2018-09-11T22:06:51.061Z,1.43
2018-09-11T22:09:19.448Z,1.83
2018-09-11T22:11:47.813Z,1.80
2018-09-11T22:14:16.138Z,1.83
2018-09-11T22:16:44.564Z,1.20
2018-09-11T22:19:13.038Z,1.20
2018-09-11T22:21:41.304Z,1.47
2018-09-11T22:24:09.659Z,1.50
2018-09-11T22:26:38.708Z,1.60
2018-09-11T22:29:07.068Z,1.43
2018-09-11T22:31:38.493Z,2.13
2018-09-11T22:34:06.879Z,1.30
2018-09-11T22:36:35.290Z,1.70
2018-09-11T22:39:03.924Z,1.27
2018-09-11T22:41:32.333Z,1.20
2018-09-11T22:44:01.070Z,1.50
2018-09-11T22:46:29.478Z,1.30
2018-09-11T22:48:57.902Z,1.30
2018-09-11T22:51:26.556Z,2.63
2018-09-11T22:53:54.960Z,1.73
2018-09-11T22:56:23.313Z,2.67
2018-09-11T22:58:51.764Z,1.90
2018-09-11T23:01:20.108Z,2.03
2018-09-11T23:03:49.176Z,1.23
2018-09-11T23:06:17.566Z,1.90
2018-09-11T23:08:46.085Z,1.37
2018-09-11T23:11:14.393Z,1.87
2018-09-11T23:13:43.380Z,2.10
2018-09-11T23:16:11.720Z,1.63
2018-09-11T23:18:40.124Z,1.93
2018-09-11T23:21:08.528Z,1.40
2018-09-11T23:23:37.040Z,1.50
2018-09-11T23:26:05.440Z,1.57
2018-09-11T23:28:33.772Z,1.23
2018-09-11T23:31:02.125Z,1.23
2018-09-11T23:33:30.462Z,1.77
2018-09-11T23:35:58.807Z,1.57
2018-09-11T23:38:27.189Z,1.13
2018-09-11T23:40:55.516Z,1.50
2018-09-11T23:43:23.868Z,2.10
2018-09-11T23:45:52.228Z,2.33
2018-09-11T23:50:55.833Z,1.43
2018-09-11T23:53:24.168Z,1.80
2018-09-11T23:55:53.007Z,1.03
2018-09-11T23:58:21.366Z,1.60
